Tutti
Campbelltown Hospital Airport YXCP Meteo
There is no TAF data available at YXCP. Showing TAF data for YSCN (7 mi O).
Previsione area Terminal CDU (nessun dato per YXCP)
| Here is the undecoded forecast: 2026/05/08 05:12 YSCN 080512Z 0806/0818 24012KT CAVOK FM080900 22005KT CAVOK FM081100 VRB03KT CAVOK RMK FM080600 MOD TURB BLW 5000FT TL081000 T 18 14 12 10 Q 1017 1019 1021 1022 |
There is no METAR data available at YXCP. Showing METAR data for YSCN (7 mi O).
Storico METAR CDU recente (nessun dato per YXCP)
| Date | Time (AEST) | Flight Rules | Wind Dir. | Speed | Type | Height AGL (ft) | Visibility | Temp (°C) | Temp (°F) | Dew Point (°C) | Dew Point (°F) | Rel. Humid. | Pressure | Density Altitude | Remarks |
|---|---|---|---|---|---|---|---|---|---|---|---|---|---|---|---|
| 08-mag | 20:00 | VFR | 170° | 4 kt | 10000 meters | 13° | 55° | 6° | 42° | 62% | 1021 mb | -240 ft | |||
| 08-mag | 19:00 | VFR | 240° | 5 kt | 10000 meters | 14° | 57° | 6° | 42° | 58% | 1020 mb | -91 ft | |||
| 08-mag | 18:00 | VFR | 200° | 6 kt | 10000 meters | 15° | 59° | 6° | 42° | 55% | 1019 mb | 59 ft | |||
| 08-mag | 17:00 | VFR | 230° | 17 kt | 10000 meters | 16° | 60° | 5° | 41° | 48% | 1018 mb | 208 ft | |||
| 08-mag | 16:00 | VFR | 250° | 15 kt | 10000 meters | 18° | 64° | 5° | 41° | 42% | 1017 mb | 478 ft | |||
| 08-mag | 15:00 | VFR | 240° | 15 kt | 10000 meters | 19° | 66° | 5° | 41° | 40% | 1016 mb | 628 ft | |||
| 08-mag | 14:00 | VFR | 260° | 14 kt | 10000 meters | 19° | 66° | 5° | 41° | 40% | 1016 mb | 628 ft | |||
| 08-mag | 13:00 | VFR | 240° | 14 kt | 10000 meters | 19° | 66° | 5° | 41° | 40% | 1016 mb | 628 ft | |||
| 08-mag | 12:00 | VFR | 250° | 12 kt | 10000 meters | 19° | 66° | 5° | 41° | 40% | 1017 mb | 598 ft | |||
| 08-mag | 11:00 | VFR | 240° | 11 kt | 10000 meters | 17° | 62° | 4° | 39° | 42% | 1018 mb | 328 ft | |||
| 08-mag | 10:00 | VFR | 260° | 11 kt | 10000 meters | 17° | 62° | 5° | 41° | 45% | 1018 mb | 328 ft | |||
| 08-mag | 09:00 | VFR | 240° | 11 kt | 10000 meters | 15° | 59° | 4° | 39° | 48% | 1018 mb | 88 ft | |||
| 08-mag | 08:00 | VFR | 270° | 7 kt | 10000 meters | 13° | 55° | 4° | 39° | 54% | 1018 mb | -152 ft | |||
| 08-mag | 07:00 | VFR | 260° | 8 kt | 10000 meters | 10° | 50° | 3° | 37° | 62% | 1018 mb | -512 ft | |||
| 08-mag | 06:00 | VFR | 250° | 8 kt | 10000 meters | 10° | 50° | 2° | 35° | 57% | 1018 mb | -512 ft | |||
| 08-mag | 05:00 | VFR | 270° | 7 kt | 10000 meters | 10° | 50° | 2° | 35° | 57% | 1017 mb | -482 ft | |||
| 08-mag | 04:00 | VFR | 240° | 6 kt | 10000 meters | 10° | 50° | 2° | 35° | 57% | 1017 mb | -482 ft | |||
| 08-mag | 03:00 | VFR | 250° | 9 kt | 10000 meters | 10° | 50° | 2° | 35° | 57% | 1018 mb | -512 ft | |||
| 08-mag | 02:00 | VFR | 240° | 7 kt | 10000 meters | 10° | 50° | 2° | 35° | 57% | 1018 mb | -512 ft | |||
| 08-mag | 01:00 | VFR | 240° | 11 kt | 10000 meters | 10° | 50° | 1° | 33° | 53% | 1019 mb | -541 ft | |||
| 08-mag | 00:00 | VFR | 240° | 12 kt | 10000 meters | 10° | 50° | 0° | 32° | 50% | 1019 mb | -541 ft | |||
| 07-mag | 23:00 | VFR | 260° | 4 kt | 10000 meters | 9° | 48° | 0° | 32° | 53% | 1019 mb | -661 ft | |||
| 07-mag | 22:00 | VFR | 260° | 7 kt | 10000 meters | 10° | 50° | 0° | 32° | 50% | 1019 mb | -541 ft | |||
| 07-mag | 21:00 | VFR | 260° | 9 kt | 10000 meters | 10° | 50° | 0° | 32° | 50% | 1019 mb | -541 ft |
Accedi
| Il tuo browser non è supportato. fai l'upgrade del tuo browser |
